sensor_id;sensor_type;location;lat;lon;timestamp;P1;durP1;ratioP1;P2;durP2;ratioP2
30519;SDS011;17300;50.374;8.006;2023-06-26T00:00:16;4.37;;;4.00;;
30519;SDS011;17300;50.374;8.006;2023-06-26T00:02:43;4.37;;;3.97;;
30519;SDS011;17300;50.374;8.006;2023-06-26T00:05:09;4.43;;;4.03;;
30519;SDS011;17300;50.374;8.006;2023-06-26T00:07:36;4.30;;;3.90;;
30519;SDS011;17300;50.374;8.006;2023-06-26T00:10:05;4.70;;;4.30;;
30519;SDS011;17300;50.374;8.006;2023-06-26T00:12:32;4.83;;;4.43;;
30519;SDS011;17300;50.374;8.006;2023-06-26T00:14:59;4.30;;;3.90;;
30519;SDS011;17300;50.374;8.006;2023-06-26T00:17:25;4.30;;;3.90;;
30519;SDS011;17300;50.374;8.006;2023-06-26T00:19:52;4.30;;;3.90;;
30519;SDS011;17300;50.374;8.006;2023-06-26T00:22:20;4.50;;;4.10;;
30519;SDS011;17300;50.374;8.006;2023-06-26T00:24:47;4.40;;;4.10;;
30519;SDS011;17300;50.374;8.006;2023-06-26T00:27:18;4.10;;;3.80;;
30519;SDS011;17300;50.374;8.006;2023-06-26T00:29:44;4.50;;;4.13;;
30519;SDS011;17300;50.374;8.006;2023-06-26T00:32:11;4.60;;;4.20;;
30519;SDS011;17300;50.374;8.006;2023-06-26T00:34:38;3.97;;;3.67;;
30519;SDS011;17300;50.374;8.006;2023-06-26T00:37:04;4.50;;;4.20;;
30519;SDS011;17300;50.374;8.006;2023-06-26T00:39:31;4.67;;;4.13;;
30519;SDS011;17300;50.374;8.006;2023-06-26T00:41:58;4.30;;;4.00;;
30519;SDS011;17300;50.374;8.006;2023-06-26T00:44:26;4.07;;;3.77;;
30519;SDS011;17300;50.374;8.006;2023-06-26T00:46:53;4.50;;;4.10;;
30519;SDS011;17300;50.374;8.006;2023-06-26T00:49:20;4.40;;;4.10;;
30519;SDS011;17300;50.374;8.006;2023-06-26T00:51:46;4.27;;;3.97;;
30519;SDS011;17300;50.374;8.006;2023-06-26T00:54:15;4.27;;;3.97;;
30519;SDS011;17300;50.374;8.006;2023-06-26T00:56:45;4.43;;;4.13;;
30519;SDS011;17300;50.374;8.006;2023-06-26T00:59:12;4.40;;;4.00;;
30519;SDS011;17300;50.374;8.006;2023-06-26T01:01:40;4.63;;;4.23;;
30519;SDS011;17300;50.374;8.006;2023-06-26T01:04:07;4.23;;;3.90;;
30519;SDS011;17300;50.374;8.006;2023-06-26T01:06:42;4.27;;;3.97;;
30519;SDS011;17300;50.374;8.006;2023-06-26T01:09:13;4.30;;;4.00;;
30519;SDS011;17300;50.374;8.006;2023-06-26T01:11:42;4.93;;;4.47;;
30519;SDS011;17300;50.374;8.006;2023-06-26T01:14:08;4.47;;;4.10;;
30519;SDS011;17300;50.374;8.006;2023-06-26T01:16:35;4.20;;;3.80;;
30519;SDS011;17300;50.374;8.006;2023-06-26T01:19:05;4.20;;;3.90;;
30519;SDS011;17300;50.374;8.006;2023-06-26T01:21:37;4.30;;;3.97;;
30519;SDS011;17300;50.374;8.006;2023-06-26T01:24:12;4.50;;;3.97;;
30519;SDS011;17300;50.374;8.006;2023-06-26T01:26:47;4.17;;;3.87;;
30519;SDS011;17300;50.374;8.006;2023-06-26T01:29:15;4.20;;;3.90;;
30519;SDS011;17300;50.374;8.006;2023-06-26T01:31:44;3.83;;;3.53;;
30519;SDS011;17300;50.374;8.006;2023-06-26T01:34:14;4.73;;;4.33;;
30519;SDS011;17300;50.374;8.006;2023-06-26T01:36:41;4.37;;;4.07;;
30519;SDS011;17300;50.374;8.006;2023-06-26T01:39:08;4.30;;;4.00;;
30519;SDS011;17300;50.374;8.006;2023-06-26T01:41:35;4.70;;;4.30;;
30519;SDS011;17300;50.374;8.006;2023-06-26T01:44:07;4.57;;;4.17;;
30519;SDS011;17300;50.374;8.006;2023-06-26T01:46:42;4.23;;;3.93;;
30519;SDS011;17300;50.374;8.006;2023-06-26T01:49:17;4.33;;;4.03;;
30519;SDS011;17300;50.374;8.006;2023-06-26T01:51:51;4.47;;;4.00;;
30519;SDS011;17300;50.374;8.006;2023-06-26T01:54:24;4.60;;;3.83;;
30519;SDS011;17300;50.374;8.006;2023-06-26T01:56:55;4.07;;;3.77;;
30519;SDS011;17300;50.374;8.006;2023-06-26T01:59:25;4.83;;;4.43;;
30519;SDS011;17300;50.374;8.006;2023-06-26T02:01:55;4.40;;;4.00;;
30519;SDS011;17300;50.374;8.006;2023-06-26T02:04:22;4.20;;;3.87;;
30519;SDS011;17300;50.374;8.006;2023-06-26T02:06:49;4.50;;;4.10;;
30519;SDS011;17300;50.374;8.006;2023-06-26T02:09:16;4.37;;;4.07;;
30519;SDS011;17300;50.374;8.006;2023-06-26T02:11:42;4.50;;;4.10;;
30519;SDS011;17300;50.374;8.006;2023-06-26T02:14:09;4.63;;;4.23;;
30519;SDS011;17300;50.374;8.006;2023-06-26T02:19:26;4.20;;;3.90;;
30519;SDS011;17300;50.374;8.006;2023-06-26T02:21:52;5.17;;;4.23;;
30519;SDS011;17300;50.374;8.006;2023-06-26T02:24:19;4.53;;;4.17;;
30519;SDS011;17300;50.374;8.006;2023-06-26T02:26:46;4.60;;;4.20;;
30519;SDS011;17300;50.374;8.006;2023-06-26T02:29:14;4.17;;;3.87;;
30519;SDS011;17300;50.374;8.006;2023-06-26T02:31:41;4.60;;;4.20;;
30519;SDS011;17300;50.374;8.006;2023-06-26T02:34:09;4.70;;;4.30;;
30519;SDS011;17300;50.374;8.006;2023-06-26T02:36:36;4.13;;;3.83;;
30519;SDS011;17300;50.374;8.006;2023-06-26T02:39:02;4.40;;;4.10;;
30519;SDS011;17300;50.374;8.006;2023-06-26T02:41:29;4.77;;;4.37;;
30519;SDS011;17300;50.374;8.006;2023-06-26T02:43:56;4.47;;;4.07;;
30519;SDS011;17300;50.374;8.006;2023-06-26T02:46:23;4.80;;;4.33;;
30519;SDS011;17300;50.374;8.006;2023-06-26T02:48:49;4.57;;;4.17;;
30519;SDS011;17300;50.374;8.006;2023-06-26T02:51:18;4.90;;;4.50;;
30519;SDS011;17300;50.374;8.006;2023-06-26T02:53:44;4.60;;;4.20;;
30519;SDS011;17300;50.374;8.006;2023-06-26T02:56:11;4.37;;;4.03;;
30519;SDS011;17300;50.374;8.006;2023-06-26T02:58:38;4.10;;;3.70;;
30519;SDS011;17300;50.374;8.006;2023-06-26T03:01:04;4.50;;;4.20;;
30519;SDS011;17300;50.374;8.006;2023-06-26T03:03:31;4.33;;;4.03;;
30519;SDS011;17300;50.374;8.006;2023-06-26T03:06:05;4.33;;;4.03;;
30519;SDS011;17300;50.374;8.006;2023-06-26T03:08:33;4.53;;;4.17;;
30519;SDS011;17300;50.374;8.006;2023-06-26T03:11:02;4.83;;;4.43;;
30519;SDS011;17300;50.374;8.006;2023-06-26T03:13:29;4.97;;;4.57;;
30519;SDS011;17300;50.374;8.006;2023-06-26T03:15:55;5.23;;;4.73;;
30519;SDS011;17300;50.374;8.006;2023-06-26T03:18:22;4.40;;;4.10;;
30519;SDS011;17300;50.374;8.006;2023-06-26T03:20:48;4.93;;;4.00;;
30519;SDS011;17300;50.374;8.006;2023-06-26T03:23:15;4.50;;;4.20;;
30519;SDS011;17300;50.374;8.006;2023-06-26T03:25:43;4.37;;;4.03;;
30519;SDS011;17300;50.374;8.006;2023-06-26T03:28:10;4.90;;;4.50;;
30519;SDS011;17300;50.374;8.006;2023-06-26T03:30:37;4.43;;;4.13;;
30519;SDS011;17300;50.374;8.006;2023-06-26T03:33:04;4.43;;;3.97;;
30519;SDS011;17300;50.374;8.006;2023-06-26T03:35:30;4.60;;;4.20;;
30519;SDS011;17300;50.374;8.006;2023-06-26T03:37:57;4.73;;;4.33;;
30519;SDS011;17300;50.374;8.006;2023-06-26T03:40:25;4.90;;;4.50;;
30519;SDS011;17300;50.374;8.006;2023-06-26T03:42:53;5.10;;;4.60;;
30519;SDS011;17300;50.374;8.006;2023-06-26T03:45:20;4.63;;;4.23;;
30519;SDS011;17300;50.374;8.006;2023-06-26T03:47:47;4.53;;;4.13;;
30519;SDS011;17300;50.374;8.006;2023-06-26T03:50:14;5.10;;;4.70;;
30519;SDS011;17300;50.374;8.006;2023-06-26T03:52:41;4.97;;;4.47;;
30519;SDS011;17300;50.374;8.006;2023-06-26T03:55:08;4.60;;;4.20;;
30519;SDS011;17300;50.374;8.006;2023-06-26T03:57:35;4.70;;;4.27;;
30519;SDS011;17300;50.374;8.006;2023-06-26T04:00:03;4.80;;;4.40;;
30519;SDS011;17300;50.374;8.006;2023-06-26T04:02:33;4.33;;;4.03;;
30519;SDS011;17300;50.374;8.006;2023-06-26T04:05:00;4.97;;;4.57;;
30519;SDS011;17300;50.374;8.006;2023-06-26T04:07:28;4.13;;;3.83;;
30519;SDS011;17300;50.374;8.006;2023-06-26T04:09:56;4.53;;;4.13;;
30519;SDS011;17300;50.374;8.006;2023-06-26T04:12:22;5.07;;;4.63;;
30519;SDS011;17300;50.374;8.006;2023-06-26T04:14:49;5.03;;;4.53;;
30519;SDS011;17300;50.374;8.006;2023-06-26T04:17:17;4.70;;;4.30;;
30519;SDS011;17300;50.374;8.006;2023-06-26T04:19:44;4.60;;;4.27;;
30519;SDS011;17300;50.374;8.006;2023-06-26T04:22:11;4.93;;;4.43;;
30519;SDS011;17300;50.374;8.006;2023-06-26T04:24:38;4.97;;;4.57;;
30519;SDS011;17300;50.374;8.006;2023-06-26T04:27:05;5.20;;;4.80;;
30519;SDS011;17300;50.374;8.006;2023-06-26T04:29:32;5.03;;;4.53;;
30519;SDS011;17300;50.374;8.006;2023-06-26T04:31:58;5.23;;;4.73;;
30519;SDS011;17300;50.374;8.006;2023-06-26T04:34:26;4.70;;;4.30;;
30519;SDS011;17300;50.374;8.006;2023-06-26T04:36:57;4.93;;;4.53;;
30519;SDS011;17300;50.374;8.006;2023-06-26T04:39:24;5.13;;;4.73;;
30519;SDS011;17300;50.374;8.006;2023-06-26T04:41:51;5.10;;;4.60;;
30519;SDS011;17300;50.374;8.006;2023-06-26T04:44:18;5.17;;;4.77;;
30519;SDS011;17300;50.374;8.006;2023-06-26T04:46:44;4.40;;;4.10;;
30519;SDS011;17300;50.374;8.006;2023-06-26T04:49:11;5.10;;;4.70;;
30519;SDS011;17300;50.374;8.006;2023-06-26T04:51:39;4.67;;;4.27;;
30519;SDS011;17300;50.374;8.006;2023-06-26T04:54:06;4.77;;;4.37;;
30519;SDS011;17300;50.374;8.006;2023-06-26T04:56:33;5.20;;;4.80;;
30519;SDS011;17300;50.374;8.006;2023-06-26T04:59:00;5.20;;;4.80;;
30519;SDS011;17300;50.374;8.006;2023-06-26T05:01:27;5.20;;;4.70;;
30519;SDS011;17300;50.374;8.006;2023-06-26T05:03:54;5.07;;;4.67;;
30519;SDS011;17300;50.374;8.006;2023-06-26T05:06:21;4.83;;;4.47;;
30519;SDS011;17300;50.374;8.006;2023-06-26T05:08:50;5.33;;;4.93;;
30519;SDS011;17300;50.374;8.006;2023-06-26T05:11:16;5.13;;;4.73;;
30519;SDS011;17300;50.374;8.006;2023-06-26T05:13:43;4.73;;;4.43;;
30519;SDS011;17300;50.374;8.006;2023-06-26T05:16:10;5.00;;;4.60;;
30519;SDS011;17300;50.374;8.006;2023-06-26T05:18:37;4.87;;;4.47;;
30519;SDS011;17300;50.374;8.006;2023-06-26T05:21:03;5.07;;;4.57;;
30519;SDS011;17300;50.374;8.006;2023-06-26T05:23:31;5.13;;;4.73;;
30519;SDS011;17300;50.374;8.006;2023-06-26T05:26:00;5.40;;;5.00;;
30519;SDS011;17300;50.374;8.006;2023-06-26T05:28:28;5.20;;;4.70;;
30519;SDS011;17300;50.374;8.006;2023-06-26T05:30:56;5.20;;;4.80;;
30519;SDS011;17300;50.374;8.006;2023-06-26T05:33:24;5.47;;;5.07;;
30519;SDS011;17300;50.374;8.006;2023-06-26T05:35:52;5.43;;;5.03;;
30519;SDS011;17300;50.374;8.006;2023-06-26T05:38:20;5.40;;;5.00;;
30519;SDS011;17300;50.374;8.006;2023-06-26T05:40:47;5.53;;;5.00;;
30519;SDS011;17300;50.374;8.006;2023-06-26T05:43:16;6.30;;;5.80;;
30519;SDS011;17300;50.374;8.006;2023-06-26T05:45:46;5.77;;;5.27;;
30519;SDS011;17300;50.374;8.006;2023-06-26T05:48:12;5.65;;;5.15;;
30519;SDS011;17300;50.374;8.006;2023-06-26T05:50:39;5.55;;;5.07;;
30519;SDS011;17300;50.374;8.006;2023-06-26T05:53:07;5.50;;;4.97;;
30519;SDS011;17300;50.374;8.006;2023-06-26T05:55:34;5.15;;;4.70;;
30519;SDS011;17300;50.374;8.006;2023-06-26T05:58:01;5.40;;;4.90;;
30519;SDS011;17300;50.374;8.006;2023-06-26T06:00:30;5.05;;;4.68;;
30519;SDS011;17300;50.374;8.006;2023-06-26T06:02:57;5.05;;;4.53;;
30519;SDS011;17300;50.374;8.006;2023-06-26T06:05:24;5.85;;;4.85;;
30519;SDS011;17300;50.374;8.006;2023-06-26T06:07:51;5.47;;;4.65;;
30519;SDS011;17300;50.374;8.006;2023-06-26T06:10:17;4.72;;;4.32;;
30519;SDS011;17300;50.374;8.006;2023-06-26T06:12:44;4.65;;;4.25;;
30519;SDS011;17300;50.374;8.006;2023-06-26T06:15:11;5.18;;;4.78;;
30519;SDS011;17300;50.374;8.006;2023-06-26T06:17:39;5.25;;;4.80;;
30519;SDS011;17300;50.374;8.006;2023-06-26T06:20:06;6.00;;;4.65;;
30519;SDS011;17300;50.374;8.006;2023-06-26T06:22:33;4.57;;;4.28;;
30519;SDS011;17300;50.374;8.006;2023-06-26T06:24:59;4.47;;;4.18;;
30519;SDS011;17300;50.374;8.006;2023-06-26T06:27:26;4.50;;;4.10;;
30519;SDS011;17300;50.374;8.006;2023-06-26T06:29:53;4.65;;;4.25;;
30519;SDS011;17300;50.374;8.006;2023-06-26T06:32:20;4.68;;;4.30;;
30519;SDS011;17300;50.374;8.006;2023-06-26T06:34:48;4.45;;;4.15;;
30519;SDS011;17300;50.374;8.006;2023-06-26T06:37:15;4.53;;;4.22;;
30519;SDS011;17300;50.374;8.006;2023-06-26T06:39:42;4.18;;;3.88;;
30519;SDS011;17300;50.374;8.006;2023-06-26T06:42:08;4.53;;;4.22;;
30519;SDS011;17300;50.374;8.006;2023-06-26T06:44:35;4.25;;;3.95;;
30519;SDS011;17300;50.374;8.006;2023-06-26T06:47:02;4.38;;;3.97;;
30519;SDS011;17300;50.374;8.006;2023-06-26T06:49:29;4.35;;;4.05;;
30519;SDS011;17300;50.374;8.006;2023-06-26T06:51:57;4.95;;;4.55;;
30519;SDS011;17300;50.374;8.006;2023-06-26T06:54:25;4.60;;;4.30;;
30519;SDS011;17300;50.374;8.006;2023-06-26T06:56:52;4.10;;;3.80;;
30519;SDS011;17300;50.374;8.006;2023-06-26T06:59:19;4.53;;;4.13;;
30519;SDS011;17300;50.374;8.006;2023-06-26T07:01:45;4.18;;;3.90;;
30519;SDS011;17300;50.374;8.006;2023-06-26T07:04:12;4.00;;;3.70;;
30519;SDS011;17300;50.374;8.006;2023-06-26T07:06:40;4.50;;;4.10;;
30519;SDS011;17300;50.374;8.006;2023-06-26T07:09:08;3.83;;;3.53;;
30519;SDS011;17300;50.374;8.006;2023-06-26T07:11:34;3.67;;;3.45;;
30519;SDS011;17300;50.374;8.006;2023-06-26T07:14:01;3.72;;;3.42;;
30519;SDS011;17300;50.374;8.006;2023-06-26T07:16:28;3.72;;;3.42;;
30519;SDS011;17300;50.374;8.006;2023-06-26T07:18:55;3.92;;;3.63;;
30519;SDS011;17300;50.374;8.006;2023-06-26T07:21:22;3.15;;;2.95;;
30519;SDS011;17300;50.374;8.006;2023-06-26T07:23:49;3.42;;;3.22;;
30519;SDS011;17300;50.374;8.006;2023-06-26T07:26:17;3.85;;;3.55;;
30519;SDS011;17300;50.374;8.006;2023-06-26T07:28:43;4.05;;;3.45;;
30519;SDS011;17300;50.374;8.006;2023-06-26T07:31:10;3.80;;;3.50;;
30519;SDS011;17300;50.374;8.006;2023-06-26T07:33:37;4.22;;;3.50;;
30519;SDS011;17300;50.374;8.006;2023-06-26T07:36:03;3.50;;;3.20;;
30519;SDS011;17300;50.374;8.006;2023-06-26T07:38:30;3.97;;;3.58;;
30519;SDS011;17300;50.374;8.006;2023-06-26T07:40:57;3.38;;;3.17;;
30519;SDS011;17300;50.374;8.006;2023-06-26T07:43:26;3.70;;;3.40;;
30519;SDS011;17300;50.374;8.006;2023-06-26T07:45:52;3.88;;;3.47;;
30519;SDS011;17300;50.374;8.006;2023-06-26T07:48:19;4.25;;;3.70;;
30519;SDS011;17300;50.374;8.006;2023-06-26T07:50:46;4.53;;;3.53;;
30519;SDS011;17300;50.374;8.006;2023-06-26T07:53:12;3.22;;;3.03;;
30519;SDS011;17300;50.374;8.006;2023-06-26T07:55:39;3.55;;;3.25;;
30519;SDS011;17300;50.374;8.006;2023-06-26T07:58:06;3.05;;;2.85;;
30519;SDS011;17300;50.374;8.006;2023-06-26T08:00:35;3.85;;;3.55;;
30519;SDS011;17300;50.374;8.006;2023-06-26T08:03:01;4.47;;;3.90;;
30519;SDS011;17300;50.374;8.006;2023-06-26T08:05:28;4.57;;;3.42;;
30519;SDS011;17300;50.374;8.006;2023-06-26T08:07:55;3.90;;;3.63;;
30519;SDS011;17300;50.374;8.006;2023-06-26T08:10:21;3.50;;;3.30;;
30519;SDS011;17300;50.374;8.006;2023-06-26T08:12:48;4.13;;;3.65;;
30519;SDS011;17300;50.374;8.006;2023-06-26T08:15:16;3.92;;;3.63;;
30519;SDS011;17300;50.374;8.006;2023-06-26T08:17:45;4.35;;;4.03;;
30519;SDS011;17300;50.374;8.006;2023-06-26T08:20:11;3.63;;;3.33;;
30519;SDS011;17300;50.374;8.006;2023-06-26T08:22:39;4.38;;;3.65;;
30519;SDS011;17300;50.374;8.006;2023-06-26T08:25:06;3.85;;;3.55;;
30519;SDS011;17300;50.374;8.006;2023-06-26T08:27:33;3.83;;;3.53;;
30519;SDS011;17300;50.374;8.006;2023-06-26T08:30:00;4.03;;;3.72;;
30519;SDS011;17300;50.374;8.006;2023-06-26T08:32:26;3.97;;;3.70;;
30519;SDS011;17300;50.374;8.006;2023-06-26T08:34:55;4.20;;;3.90;;
30519;SDS011;17300;50.374;8.006;2023-06-26T08:37:21;4.10;;;3.80;;
30519;SDS011;17300;50.374;8.006;2023-06-26T08:39:48;3.75;;;3.45;;
30519;SDS011;17300;50.374;8.006;2023-06-26T08:42:15;3.90;;;3.60;;
30519;SDS011;17300;50.374;8.006;2023-06-26T08:44:42;4.25;;;3.85;;
30519;SDS011;17300;50.374;8.006;2023-06-26T08:47:09;4.03;;;3.72;;
30519;SDS011;17300;50.374;8.006;2023-06-26T08:49:41;4.13;;;3.55;;
30519;SDS011;17300;50.374;8.006;2023-06-26T08:52:17;3.28;;;3.08;;
30519;SDS011;17300;50.374;8.006;2023-06-26T08:54:49;3.90;;;3.60;;
30519;SDS011;17300;50.374;8.006;2023-06-26T08:57:22;3.78;;;3.25;;
30519;SDS011;17300;50.374;8.006;2023-06-26T08:59:49;3.70;;;3.40;;
30519;SDS011;17300;50.374;8.006;2023-06-26T09:02:17;3.15;;;2.95;;
30519;SDS011;17300;50.374;8.006;2023-06-26T09:04:45;3.40;;;3.10;;
30519;SDS011;17300;50.374;8.006;2023-06-26T09:07:15;3.78;;;3.30;;
30519;SDS011;17300;50.374;8.006;2023-06-26T09:09:41;3.63;;;3.33;;
30519;SDS011;17300;50.374;8.006;2023-06-26T09:12:08;3.22;;;3.03;;
30519;SDS011;17300;50.374;8.006;2023-06-26T09:14:36;3.70;;;3.30;;
30519;SDS011;17300;50.374;8.006;2023-06-26T09:17:03;3.60;;;3.00;;
30519;SDS011;17300;50.374;8.006;2023-06-26T09:19:30;3.50;;;3.20;;
30519;SDS011;17300;50.374;8.006;2023-06-26T09:21:57;3.35;;;3.10;;
30519;SDS011;17300;50.374;8.006;2023-06-26T09:24:25;3.42;;;3.13;;
30519;SDS011;17300;50.374;8.006;2023-06-26T09:26:52;2.95;;;2.75;;
30519;SDS011;17300;50.374;8.006;2023-06-26T09:29:18;2.95;;;2.75;;
30519;SDS011;17300;50.374;8.006;2023-06-26T09:31:45;2.90;;;2.70;;
30519;SDS011;17300;50.374;8.006;2023-06-26T09:34:12;2.70;;;2.50;;
30519;SDS011;17300;50.374;8.006;2023-06-26T09:36:39;2.60;;;2.40;;
30519;SDS011;17300;50.374;8.006;2023-06-26T09:39:10;3.03;;;2.83;;
30519;SDS011;17300;50.374;8.006;2023-06-26T09:41:38;2.72;;;2.55;;
30519;SDS011;17300;50.374;8.006;2023-06-26T09:44:06;2.90;;;2.70;;
30519;SDS011;17300;50.374;8.006;2023-06-26T09:46:37;3.00;;;2.65;;
30519;SDS011;17300;50.374;8.006;2023-06-26T09:49:05;3.30;;;2.85;;
30519;SDS011;17300;50.374;8.006;2023-06-26T09:51:33;3.28;;;3.03;;
30519;SDS011;17300;50.374;8.006;2023-06-26T09:54:02;2.85;;;2.65;;
30519;SDS011;17300;50.374;8.006;2023-06-26T09:56:30;3.67;;;2.75;;
30519;SDS011;17300;50.374;8.006;2023-06-26T09:58:59;2.88;;;2.58;;
30519;SDS011;17300;50.374;8.006;2023-06-26T10:01:27;2.85;;;2.65;;
30519;SDS011;17300;50.374;8.006;2023-06-26T10:03:54;3.45;;;2.80;;
30519;SDS011;17300;50.374;8.006;2023-06-26T10:06:22;3.13;;;2.65;;
30519;SDS011;17300;50.374;8.006;2023-06-26T10:08:52;3.08;;;2.70;;
30519;SDS011;17300;50.374;8.006;2023-06-26T10:11:21;3.00;;;2.70;;
30519;SDS011;17300;50.374;8.006;2023-06-26T10:13:49;3.25;;;2.90;;
30519;SDS011;17300;50.374;8.006;2023-06-26T10:16:20;4.00;;;2.50;;
30519;SDS011;17300;50.374;8.006;2023-06-26T10:18:50;3.85;;;2.47;;
30519;SDS011;17300;50.374;8.006;2023-06-26T10:21:19;3.65;;;2.70;;
30519;SDS011;17300;50.374;8.006;2023-06-26T10:23:48;2.53;;;2.33;;
30519;SDS011;17300;50.374;8.006;2023-06-26T10:26:17;2.97;;;2.72;;
30519;SDS011;17300;50.374;8.006;2023-06-26T10:28:47;2.85;;;2.65;;
30519;SDS011;17300;50.374;8.006;2023-06-26T10:31:18;2.50;;;2.30;;
30519;SDS011;17300;50.374;8.006;2023-06-26T10:33:48;2.90;;;2.45;;
30519;SDS011;17300;50.374;8.006;2023-06-26T10:36:16;4.22;;;2.83;;
30519;SDS011;17300;50.374;8.006;2023-06-26T10:38:50;2.90;;;2.60;;
30519;SDS011;17300;50.374;8.006;2023-06-26T10:41:21;2.70;;;2.50;;
30519;SDS011;17300;50.374;8.006;2023-06-26T10:43:49;4.13;;;2.53;;
30519;SDS011;17300;50.374;8.006;2023-06-26T10:46:19;3.60;;;2.70;;
30519;SDS011;17300;50.374;8.006;2023-06-26T10:48:57;3.00;;;2.70;;
30519;SDS011;17300;50.374;8.006;2023-06-26T10:51:24;2.60;;;2.40;;
30519;SDS011;17300;50.374;8.006;2023-06-26T10:53:53;3.58;;;2.63;;
30519;SDS011;17300;50.374;8.006;2023-06-26T10:56:21;3.83;;;2.80;;
30519;SDS011;17300;50.374;8.006;2023-06-26T10:58:48;3.42;;;3.13;;
30519;SDS011;17300;50.374;8.006;2023-06-26T11:01:16;2.90;;;2.63;;
30519;SDS011;17300;50.374;8.006;2023-06-26T11:03:46;4.18;;;2.67;;
30519;SDS011;17300;50.374;8.006;2023-06-26T11:06:15;4.22;;;2.63;;
30519;SDS011;17300;50.374;8.006;2023-06-26T11:08:44;3.15;;;2.88;;
30519;SDS011;17300;50.374;8.006;2023-06-26T11:11:11;2.83;;;2.35;;
30519;SDS011;17300;50.374;8.006;2023-06-26T11:13:38;2.72;;;2.30;;
30519;SDS011;17300;50.374;8.006;2023-06-26T11:16:05;3.78;;;2.45;;
30519;SDS011;17300;50.374;8.006;2023-06-26T11:18:33;4.18;;;2.90;;
30519;SDS011;17300;50.374;8.006;2023-06-26T11:21:06;3.58;;;2.63;;
30519;SDS011;17300;50.374;8.006;2023-06-26T11:23:35;3.05;;;2.40;;
30519;SDS011;17300;50.374;8.006;2023-06-26T11:26:15;2.50;;;2.30;;
30519;SDS011;17300;50.374;8.006;2023-06-26T11:28:47;3.25;;;2.78;;
30519;SDS011;17300;50.374;8.006;2023-06-26T11:31:27;2.60;;;2.40;;
30519;SDS011;17300;50.374;8.006;2023-06-26T11:33:56;2.72;;;2.40;;
30519;SDS011;17300;50.374;8.006;2023-06-26T11:36:24;2.35;;;2.15;;
30519;SDS011;17300;50.374;8.006;2023-06-26T11:38:54;3.00;;;2.45;;
30519;SDS011;17300;50.374;8.006;2023-06-26T11:41:22;3.13;;;2.47;;
30519;SDS011;17300;50.374;8.006;2023-06-26T11:43:49;3.38;;;2.60;;
30519;SDS011;17300;50.374;8.006;2023-06-26T11:46:17;3.28;;;2.30;;
30519;SDS011;17300;50.374;8.006;2023-06-26T11:48:45;3.50;;;2.50;;
30519;SDS011;17300;50.374;8.006;2023-06-26T11:51:13;3.13;;;2.47;;
30519;SDS011;17300;50.374;8.006;2023-06-26T11:53:41;3.03;;;2.45;;
30519;SDS011;17300;50.374;8.006;2023-06-26T11:56:09;2.80;;;2.50;;
30519;SDS011;17300;50.374;8.006;2023-06-26T11:58:39;2.78;;;2.22;;
30519;SDS011;17300;50.374;8.006;2023-06-26T12:01:22;3.05;;;1.95;;
30519;SDS011;17300;50.374;8.006;2023-06-26T12:03:50;2.78;;;2.15;;
30519;SDS011;17300;50.374;8.006;2023-06-26T12:06:18;2.35;;;1.90;;
30519;SDS011;17300;50.374;8.006;2023-06-26T12:08:45;3.80;;;2.55;;
30519;SDS011;17300;50.374;8.006;2023-06-26T12:11:12;1.98;;;1.85;;
30519;SDS011;17300;50.374;8.006;2023-06-26T12:13:40;2.20;;;1.95;;
30519;SDS011;17300;50.374;8.006;2023-06-26T12:16:07;3.33;;;2.20;;
30519;SDS011;17300;50.374;8.006;2023-06-26T12:18:34;2.05;;;1.83;;
30519;SDS011;17300;50.374;8.006;2023-06-26T12:21:01;3.88;;;2.20;;
30519;SDS011;17300;50.374;8.006;2023-06-26T12:23:33;2.13;;;1.90;;
30519;SDS011;17300;50.374;8.006;2023-06-26T12:26:15;3.15;;;2.08;;
30519;SDS011;17300;50.374;8.006;2023-06-26T12:28:44;1.88;;;1.50;;
30519;SDS011;17300;50.374;8.006;2023-06-26T12:31:13;3.00;;;2.10;;
30519;SDS011;17300;50.374;8.006;2023-06-26T12:33:42;2.85;;;1.90;;
30519;SDS011;17300;50.374;8.006;2023-06-26T12:36:12;3.47;;;1.83;;
30519;SDS011;17300;50.374;8.006;2023-06-26T12:38:40;2.20;;;1.83;;
30519;SDS011;17300;50.374;8.006;2023-06-26T12:41:11;2.00;;;1.80;;
30519;SDS011;17300;50.374;8.006;2023-06-26T12:43:39;2.13;;;1.70;;
30519;SDS011;17300;50.374;8.006;2023-06-26T12:46:06;2.75;;;1.80;;
30519;SDS011;17300;50.374;8.006;2023-06-26T12:48:36;3.03;;;1.83;;
30519;SDS011;17300;50.374;8.006;2023-06-26T12:51:07;1.95;;;1.75;;
30519;SDS011;17300;50.374;8.006;2023-06-26T12:53:35;2.78;;;1.75;;
30519;SDS011;17300;50.374;8.006;2023-06-26T12:56:03;2.08;;;1.50;;
30519;SDS011;17300;50.374;8.006;2023-06-26T12:58:30;2.55;;;1.50;;
30519;SDS011;17300;50.374;8.006;2023-06-26T13:00:57;2.90;;;1.88;;
30519;SDS011;17300;50.374;8.006;2023-06-26T13:03:23;2.63;;;1.50;;
30519;SDS011;17300;50.374;8.006;2023-06-26T13:05:50;1.67;;;1.48;;
30519;SDS011;17300;50.374;8.006;2023-06-26T13:08:17;2.22;;;1.75;;
30519;SDS011;17300;50.374;8.006;2023-06-26T13:10:43;2.10;;;1.52;;
30519;SDS011;17300;50.374;8.006;2023-06-26T13:13:12;2.17;;;1.60;;
30519;SDS011;17300;50.374;8.006;2023-06-26T13:15:39;2.50;;;1.30;;
30519;SDS011;17300;50.374;8.006;2023-06-26T13:18:05;2.20;;;1.55;;
30519;SDS011;17300;50.374;8.006;2023-06-26T13:20:32;3.60;;;1.50;;
30519;SDS011;17300;50.374;8.006;2023-06-26T13:22:59;2.22;;;1.63;;
30519;SDS011;17300;50.374;8.006;2023-06-26T13:25:25;1.90;;;1.63;;
30519;SDS011;17300;50.374;8.006;2023-06-26T13:27:52;4.05;;;1.33;;
30519;SDS011;17300;50.374;8.006;2023-06-26T13:30:20;2.45;;;1.83;;
30519;SDS011;17300;50.374;8.006;2023-06-26T13:32:47;2.70;;;2.50;;
30519;SDS011;17300;50.374;8.006;2023-06-26T13:35:14;3.17;;;1.75;;
30519;SDS011;17300;50.374;8.006;2023-06-26T13:37:41;2.35;;;1.58;;
30519;SDS011;17300;50.374;8.006;2023-06-26T13:40:08;3.03;;;1.52;;
30519;SDS011;17300;50.374;8.006;2023-06-26T13:42:36;1.75;;;1.60;;
30519;SDS011;17300;50.374;8.006;2023-06-26T13:45:03;2.50;;;1.60;;
30519;SDS011;17300;50.374;8.006;2023-06-26T13:47:32;2.00;;;1.50;;
30519;SDS011;17300;50.374;8.006;2023-06-26T13:50:02;3.92;;;1.85;;
30519;SDS011;17300;50.374;8.006;2023-06-26T13:52:31;1.95;;;1.50;;
30519;SDS011;17300;50.374;8.006;2023-06-26T13:54:57;1.70;;;1.40;;
30519;SDS011;17300;50.374;8.006;2023-06-26T13:57:24;2.83;;;1.27;;
30519;SDS011;17300;50.374;8.006;2023-06-26T13:59:52;2.97;;;1.40;;
30519;SDS011;17300;50.374;8.006;2023-06-26T14:02:19;2.35;;;1.45;;
30519;SDS011;17300;50.374;8.006;2023-06-26T14:04:47;2.10;;;1.30;;
30519;SDS011;17300;50.374;8.006;2023-06-26T14:07:14;2.00;;;1.58;;
30519;SDS011;17300;50.374;8.006;2023-06-26T14:09:40;2.00;;;1.60;;
30519;SDS011;17300;50.374;8.006;2023-06-26T14:12:07;2.97;;;1.83;;
30519;SDS011;17300;50.374;8.006;2023-06-26T14:14:35;2.85;;;2.25;;
30519;SDS011;17300;50.374;8.006;2023-06-26T14:17:01;2.97;;;2.28;;
30519;SDS011;17300;50.374;8.006;2023-06-26T14:19:30;4.00;;;3.58;;
30519;SDS011;17300;50.374;8.006;2023-06-26T14:21:58;3.78;;;3.05;;
30519;SDS011;17300;50.374;8.006;2023-06-26T14:24:26;5.57;;;3.70;;
30519;SDS011;17300;50.374;8.006;2023-06-26T14:26:53;3.28;;;2.60;;
30519;SDS011;17300;50.374;8.006;2023-06-26T14:29:20;2.47;;;1.75;;
30519;SDS011;17300;50.374;8.006;2023-06-26T14:31:47;2.60;;;1.60;;
30519;SDS011;17300;50.374;8.006;2023-06-26T14:34:13;2.65;;;1.30;;
30519;SDS011;17300;50.374;8.006;2023-06-26T14:36:40;3.13;;;2.45;;
30519;SDS011;17300;50.374;8.006;2023-06-26T14:39:09;3.70;;;3.15;;
30519;SDS011;17300;50.374;8.006;2023-06-26T14:41:36;2.83;;;2.35;;
30519;SDS011;17300;50.374;8.006;2023-06-26T14:44:03;3.05;;;2.13;;
30519;SDS011;17300;50.374;8.006;2023-06-26T14:46:33;1.60;;;1.50;;
30519;SDS011;17300;50.374;8.006;2023-06-26T14:48:59;2.58;;;1.33;;
30519;SDS011;17300;50.374;8.006;2023-06-26T14:51:26;2.40;;;2.10;;
30519;SDS011;17300;50.374;8.006;2023-06-26T14:53:53;2.17;;;1.77;;